createdAt,value
2022-10-28T00:01:10.664Z,99340.44
2022-10-28T00:03:39.847Z,99341.25
2022-10-28T00:06:09.703Z,99342.66
2022-10-28T00:08:36.523Z,99336.66
2022-10-28T00:11:18.915Z,99339.91
2022-10-28T00:13:45.764Z,99333.06
2022-10-28T00:16:20.829Z,99328.41
2022-10-28T00:18:48.099Z,99337.69
2022-10-28T00:21:17.519Z,99338.81
2022-10-28T00:23:44.335Z,99338.31
2022-10-28T00:26:17.808Z,99348.97
2022-10-28T00:28:47.078Z,99347.13
2022-10-28T00:31:15.783Z,99348.03
2022-10-28T00:33:42.325Z,99340.44
2022-10-28T00:36:17.404Z,99336.16
2022-10-28T00:38:46.270Z,99330.50
2022-10-28T00:41:15.839Z,99325.03
2022-10-28T00:43:47.595Z,99326.66
2022-10-28T00:46:47.545Z,99326.66
2022-10-28T00:49:20.058Z,99338.59
2022-10-28T00:51:51.981Z,99331.44
2022-10-28T00:54:19.600Z,99329.25
2022-10-28T00:56:51.546Z,99330.56
2022-10-28T00:59:26.998Z,99331.88
2022-10-28T01:01:54.386Z,99329.69
2022-10-28T01:04:21.652Z,99329.69
2022-10-28T01:06:49.138Z,99327.78
2022-10-28T01:09:15.660Z,99329.97
2022-10-28T01:12:06.998Z,99327.34
2022-10-28T01:14:53.899Z,99328.22
2022-10-28T01:17:46.363Z,99331.50
2022-10-28T01:24:44.419Z,99323.19
2022-10-28T01:39:10.033Z,99307.88
2022-10-28T01:42:48.861Z,99313.25
2022-10-28T01:45:49.369Z,99314.28
2022-10-28T01:53:06.735Z,99309.78
2022-10-28T01:56:15.940Z,99309.53
2022-10-28T01:59:10.884Z,99319.94
2022-10-28T02:05:47.745Z,99312.94
2022-10-28T02:20:04.950Z,99307.22
2022-10-28T02:26:15.942Z,99309.53
2022-10-28T02:29:04.628Z,99303.28
2022-10-28T02:31:41.183Z,99295.41
2022-10-28T02:34:34.898Z,99293.28
2022-10-28T02:37:11.548Z,99300.13
2022-10-28T02:39:47.300Z,99286.28
2022-10-28T02:42:48.343Z,99289.00
2022-10-28T02:45:24.498Z,99292.31
2022-10-28T02:48:08.141Z,99291.28
2022-10-28T02:50:44.202Z,99288.06
2022-10-28T02:53:19.732Z,99290.25
2022-10-28T02:55:57.752Z,99282.06
2022-10-28T03:01:21.195Z,99294.06
2022-10-28T03:04:17.526Z,99293.50
2022-10-28T03:07:10.609Z,99306.81
2022-10-28T03:17:04.662Z,99294.06
2022-10-28T03:19:31.079Z,99297.31
2022-10-28T03:21:57.405Z,99300.03
2022-10-28T03:24:23.765Z,99295.94
2022-10-28T03:26:50.117Z,99296.13
2022-10-28T03:29:16.492Z,99291.78
2022-10-28T03:31:42.854Z,99295.84
2022-10-28T03:34:09.224Z,99293.94
2022-10-28T03:36:35.581Z,99290.69
2022-10-28T03:39:02.169Z,99298.06
2022-10-28T03:41:28.496Z,99299.97
2022-10-28T03:43:54.945Z,99299.41
2022-10-28T03:46:21.334Z,99301.59
2022-10-28T03:48:47.677Z,99292.31
2022-10-28T03:51:14.010Z,99293.41
2022-10-28T03:53:40.394Z,99295.03
2022-10-28T03:56:07.263Z,99294.75
2022-10-28T03:58:37.297Z,99298.00
2022-10-28T04:01:06.669Z,99289.53
2022-10-28T04:03:33.120Z,99290.34
2022-10-28T04:05:59.480Z,99281.34
2022-10-28T04:08:25.822Z,99271.31
2022-10-28T04:10:52.236Z,99271.13
2022-10-28T04:13:18.588Z,99264.63
2022-10-28T04:15:45.022Z,99257.06
2022-10-28T04:18:12.126Z,99265.22
2022-10-28T04:20:46.286Z,99265.22
2022-10-28T04:23:30.025Z,99266.31
2022-10-28T04:25:57.818Z,99272.28
2022-10-28T04:28:25.969Z,99273.91
2022-10-28T04:31:01.696Z,99277.16
2022-10-28T04:39:04.197Z,99265.06
2022-10-28T04:41:35.409Z,99263.38
2022-10-28T04:44:03.890Z,99263.91
2022-10-28T04:46:32.460Z,99260.06
2022-10-28T04:49:04.005Z,99261.13
2022-10-28T04:51:34.195Z,99256.47
2022-10-28T04:54:02.077Z,99262.16
2022-10-28T04:56:58.048Z,99261.56
2022-10-28T04:59:26.119Z,99259.34
2022-10-28T05:02:00.096Z,99268.03
2022-10-28T05:08:58.833Z,99280.31
2022-10-28T05:12:17.163Z,99272.44
2022-10-28T05:18:57.211Z,99262.16
2022-10-28T05:21:55.031Z,99245.81
2022-10-28T05:24:22.482Z,99228.66
2022-10-28T05:26:50.674Z,99221.00
2022-10-28T05:29:20.353Z,99219.88
2022-10-28T05:31:52.457Z,99219.88
2022-10-28T05:34:24.996Z,99220.19
2022-10-28T05:37:06.640Z,99222.91
2022-10-28T05:39:36.038Z,99221.78
2022-10-28T05:42:09.872Z,99226.44
2022-10-28T05:45:03.982Z,99233.19
2022-10-28T05:47:45.508Z,99229.38
2022-10-28T05:50:27.980Z,99231.28
2022-10-28T05:53:06.731Z,99235.72
2022-10-28T05:55:37.212Z,99234.38
2022-10-28T05:58:07.765Z,99230.66
2022-10-28T06:00:35.697Z,99237.72
2022-10-28T06:03:28.615Z,99246.97
2022-10-28T06:06:05.370Z,99248.09
2022-10-28T06:08:33.303Z,99248.91
2022-10-28T06:11:05.328Z,99240.72
2022-10-28T06:17:05.251Z,99243.34
2022-10-28T06:19:56.397Z,99253.38
2022-10-28T06:22:30.120Z,99250.09
2022-10-28T06:25:00.433Z,99254.94
2022-10-28T06:27:38.826Z,99246.16
2022-10-28T06:30:13.334Z,99256.78
2022-10-28T06:32:52.084Z,99252.94
2022-10-28T06:39:00.810Z,99250.22
2022-10-28T06:45:01.898Z,99255.13
2022-10-28T06:48:06.310Z,99247.78
2022-10-28T06:50:55.300Z,99253.75
2022-10-28T06:53:22.146Z,99246.09
2022-10-28T06:55:55.889Z,99240.06
2022-10-28T06:58:23.206Z,99240.06
2022-10-28T07:00:49.941Z,99239.44
2022-10-28T07:03:16.986Z,99232.59
2022-10-28T07:05:43.449Z,99240.50
2022-10-28T07:08:09.902Z,99242.03
2022-10-28T07:10:36.387Z,99235.38
2022-10-28T07:13:03.342Z,99239.94
2022-10-28T07:15:29.845Z,99250.47
2022-10-28T07:17:58.158Z,99250.06
2022-10-28T07:20:26.081Z,99239.41
2022-10-28T07:23:00.399Z,99243.94
2022-10-28T07:25:28.733Z,99241.44
2022-10-28T07:27:58.532Z,99252.22
2022-10-28T07:30:25.683Z,99256.47
2022-10-28T07:32:52.544Z,99260.16
2022-10-28T07:35:19.718Z,99270.41
2022-10-28T07:37:46.582Z,99285.78
2022-10-28T07:40:13.391Z,99292.44
2022-10-28T07:42:39.849Z,99307.63
2022-10-28T07:45:06.886Z,99310.50
2022-10-28T07:47:33.251Z,99298.66
2022-10-28T07:49:59.675Z,99313.31
2022-10-28T07:56:16.405Z,99302.09
2022-10-28T07:59:51.572Z,99289.25
2022-10-28T08:08:53.296Z,99292.88
2022-10-28T08:12:21.642Z,99288.44
2022-10-28T08:14:59.099Z,99290.47
2022-10-28T08:21:08.603Z,99290.66
2022-10-28T08:24:02.212Z,99288.81
2022-10-28T08:26:35.547Z,99295.16
2022-10-28T08:35:54.048Z,99306.69
2022-10-28T08:38:48.446Z,99314.47
2022-10-28T08:45:52.985Z,99294.47
2022-10-28T08:52:42.223Z,99290.19
2022-10-28T08:55:36.922Z,99278.94
2022-10-28T08:58:17.883Z,99288.47
2022-10-28T09:01:00.483Z,99287.81
2022-10-28T09:03:54.949Z,99286.38
2022-10-28T09:06:25.597Z,99286.59
2022-10-28T09:09:03.844Z,99298.53
2022-10-28T09:14:58.361Z,99316.31
2022-10-28T09:17:54.012Z,99321.34
2022-10-28T09:21:09.061Z,99322.63
2022-10-28T09:24:09.731Z,99334.09
2022-10-28T09:26:45.875Z,99348.28
2022-10-28T09:29:37.193Z,99338.31
2022-10-28T09:39:07.328Z,99289.59
2022-10-28T09:49:38.692Z,99244.47
2022-10-28T09:52:08.111Z,99261.25
2022-10-28T09:54:39.189Z,99292.50
2022-10-28T09:57:05.909Z,99282.91
2022-10-28T09:59:33.350Z,99286.56
2022-10-28T10:01:59.889Z,99296.75
2022-10-28T10:04:29.024Z,99290.53
2022-10-28T10:07:00.521Z,99293.81
2022-10-28T10:09:29.821Z,99289.66
2022-10-28T10:12:02.206Z,99284.66
2022-10-28T10:14:34.319Z,99269.97
2022-10-28T10:17:24.916Z,99280.41
2022-10-28T10:20:00.653Z,99285.84
2022-10-28T10:22:34.146Z,99285.00
2022-10-28T10:25:00.652Z,99282.44
2022-10-28T10:27:30.323Z,99295.25
2022-10-28T10:29:58.192Z,99300.97
2022-10-28T10:32:31.608Z,99300.00
2022-10-28T10:35:15.206Z,99290.72
2022-10-28T10:37:44.117Z,99278.72
2022-10-28T10:40:26.356Z,99271.94
2022-10-28T10:43:13.187Z,99259.47
2022-10-28T10:45:40.041Z,99264.38
2022-10-28T10:48:16.158Z,99282.34
2022-10-28T10:50:45.020Z,99267.63
2022-10-28T10:53:40.534Z,99256.47
2022-10-28T10:59:20.617Z,99242.06
2022-10-28T11:05:23.010Z,99282.88
2022-10-28T11:07:57.074Z,99269.75
2022-10-28T11:10:43.658Z,99281.22
2022-10-28T11:14:09.032Z,99287.97
2022-10-28T11:17:06.392Z,99274.78
2022-10-28T11:19:45.112Z,99268.31
2022-10-28T11:22:40.203Z,99256.78
2022-10-28T11:25:50.955Z,99262.97
2022-10-28T11:33:24.742Z,99237.69
2022-10-28T11:36:34.177Z,99248.34
2022-10-28T11:39:55.497Z,99259.69
2022-10-28T11:43:09.033Z,99253.41
2022-10-28T11:46:10.687Z,99243.59
2022-10-28T11:49:01.903Z,99237.16
2022-10-28T11:51:39.238Z,99238.28
2022-10-28T11:54:11.491Z,99240.91
2022-10-28T11:56:59.397Z,99236.75
2022-10-28T11:59:57.012Z,99206.34
2022-10-28T12:02:49.328Z,99185.16
2022-10-28T12:05:27.901Z,99162.31
2022-10-28T12:08:21.477Z,99156.94
2022-10-28T12:10:50.525Z,99162.03
2022-10-28T12:13:32.027Z,99161.50
2022-10-28T12:16:15.432Z,99211.63
2022-10-28T12:19:12.617Z,99213.84
2022-10-28T12:21:57.181Z,99223.75
2022-10-28T12:24:25.025Z,99221.88
2022-10-28T12:26:56.284Z,99212.84
2022-10-28T12:29:30.063Z,99207.59
2022-10-28T12:32:11.492Z,99193.22
2022-10-28T12:34:44.996Z,99214.84
2022-10-28T12:37:21.036Z,99218.06
2022-10-28T12:40:29.145Z,99196.53
2022-10-28T12:43:07.197Z,99200.09
2022-10-28T12:53:27.604Z,99167.13
2022-10-28T12:56:08.108Z,99161.16
2022-10-28T12:58:42.990Z,99160.19
2022-10-28T13:01:21.427Z,99171.03
2022-10-28T13:03:51.991Z,99165.13
2022-10-28T13:06:51.649Z,99165.44
2022-10-28T13:09:43.400Z,99159.25
2022-10-28T13:12:17.089Z,99166.28
2022-10-28T13:15:03.798Z,99162.72
2022-10-28T13:17:43.735Z,99166.28
2022-10-28T13:20:32.632Z,99165.06
2022-10-28T13:23:19.233Z,99180.63
2022-10-28T13:26:43.433Z,99177.84
2022-10-28T13:29:48.221Z,99158.78
2022-10-28T13:32:53.778Z,99163.59
2022-10-28T13:35:46.486Z,99162.41
2022-10-28T13:39:07.887Z,99164.03
2022-10-28T13:41:44.761Z,99163.59
2022-10-28T13:44:20.383Z,99150.03
2022-10-28T13:46:58.884Z,99157.84
2022-10-28T13:49:32.137Z,99155.41
2022-10-28T13:52:02.361Z,99151.25
2022-10-28T13:54:43.753Z,99154.03
2022-10-28T13:57:28.513Z,99155.28
2022-10-28T14:00:23.365Z,99148.78
2022-10-28T14:02:56.340Z,99152.97
2022-10-28T14:05:45.992Z,99150.38
2022-10-28T14:08:22.460Z,99145.13
2022-10-28T14:11:05.364Z,99148.03
2022-10-28T14:13:37.007Z,99156.56
2022-10-28T14:16:34.250Z,99156.56
2022-10-28T14:19:08.555Z,99161.63
2022-10-28T14:21:46.952Z,99164.19
2022-10-28T14:24:29.905Z,99158.81
2022-10-28T14:27:18.057Z,99172.50
2022-10-28T14:30:05.160Z,99173.22
2022-10-28T14:32:31.580Z,99167.47
2022-10-28T14:35:13.084Z,99167.38
2022-10-28T14:38:12.512Z,99175.50
2022-10-28T14:41:00.536Z,99170.25
2022-10-28T14:44:10.131Z,99174.38
2022-10-28T14:46:48.706Z,99182.81
2022-10-28T14:49:25.592Z,99181.06
2022-10-28T14:51:53.280Z,99176.59
2022-10-28T14:54:36.606Z,99183.16
2022-10-28T14:57:07.869Z,99176.28
2022-10-28T14:59:40.328Z,99179.25
2022-10-28T15:02:25.193Z,99182.94
2022-10-28T15:05:04.485Z,99183.38
2022-10-28T15:07:35.604Z,99177.63
2022-10-28T15:10:25.985Z,99176.94
2022-10-28T15:12:54.325Z,99171.53
2022-10-28T15:15:23.453Z,99170.44
2022-10-28T15:17:50.381Z,99174.13
2022-10-28T15:20:25.474Z,99160.59
2022-10-28T15:22:53.551Z,99162.75
2022-10-28T15:25:22.090Z,99164.91
2022-10-28T15:27:52.075Z,99162.38
2022-10-28T15:30:24.873Z,99158.00
2022-10-28T15:32:52.951Z,99159.16
2022-10-28T15:35:29.626Z,99160.97
2022-10-28T15:37:59.852Z,99148.69
2022-10-28T15:40:35.155Z,99156.38
2022-10-28T15:43:06.270Z,99147.84
2022-10-28T15:45:41.328Z,99147.25
2022-10-28T15:48:13.971Z,99145.78
2022-10-28T15:50:41.495Z,99154.84
2022-10-28T15:54:26.012Z,99153.78
2022-10-28T15:57:00.098Z,99149.03
2022-10-28T15:59:28.382Z,99154.59
2022-10-28T16:01:58.071Z,99157.75
2022-10-28T16:04:28.971Z,99163.31
2022-10-28T16:07:10.874Z,99157.91
2022-10-28T16:09:49.090Z,99154.38
2022-10-28T16:13:54.611Z,99152.97
2022-10-28T16:20:35.367Z,99159.72
2022-10-28T16:24:14.362Z,99169.31
2022-10-28T16:27:36.418Z,99171.75
2022-10-28T16:30:09.100Z,99173.88
2022-10-28T16:41:47.976Z,99160.72
2022-10-28T16:44:19.341Z,99171.91
2022-10-28T16:46:50.271Z,99176.41
2022-10-28T16:49:19.158Z,99181.78
2022-10-28T16:51:46.498Z,99181.91
2022-10-28T16:54:18.584Z,99184.53
2022-10-28T17:00:19.420Z,99194.72
2022-10-28T17:03:21.345Z,99195.72
2022-10-28T17:06:16.342Z,99198.63
2022-10-28T17:12:00.531Z,99206.69
2022-10-28T17:14:49.088Z,99206.53
2022-10-28T17:17:37.744Z,99215.59
2022-10-28T17:24:07.605Z,99202.38
2022-10-28T17:26:59.361Z,99202.56
2022-10-28T17:29:38.185Z,99202.25
2022-10-28T17:32:16.316Z,99205.13
2022-10-28T17:35:33.647Z,99213.50
2022-10-28T17:38:00.444Z,99208.16
2022-10-28T17:40:27.261Z,99209.47
2022-10-28T17:42:59.382Z,99214.78
2022-10-28T17:45:29.814Z,99204.47
2022-10-28T17:48:00.686Z,99201.56
2022-10-28T17:50:31.500Z,99210.44
2022-10-28T17:52:58.096Z,99216.22
2022-10-28T17:55:24.728Z,99218.00
2022-10-28T17:57:51.086Z,99230.25
2022-10-28T18:00:17.557Z,99223.78
2022-10-28T18:02:44.026Z,99223.13
2022-10-28T18:05:10.569Z,99233.91
2022-10-28T18:07:37.040Z,99231.00
2022-10-28T18:10:03.662Z,99229.22
2022-10-28T18:12:30.024Z,99233.41
2022-10-28T18:14:56.376Z,99235.19
2022-10-28T18:17:22.780Z,99224.34
2022-10-28T18:19:49.126Z,99225.00
2022-10-28T18:22:15.639Z,99228.38
2022-10-28T18:24:42.027Z,99235.28
2022-10-28T18:27:08.583Z,99234.78
2022-10-28T18:29:36.196Z,99233.97
2022-10-28T18:32:04.533Z,99229.16
2022-10-28T18:34:31.493Z,99230.28
2022-10-28T18:36:57.983Z,99245.56
2022-10-28T18:39:26.148Z,99235.75
2022-10-28T18:41:52.623Z,99233.81
2022-10-28T18:44:21.565Z,99234.94
2022-10-28T18:46:48.061Z,99238.00
2022-10-28T18:49:14.484Z,99233.34
2022-10-28T18:54:33.512Z,99241.22
2022-10-28T18:57:12.368Z,99243.47
2022-10-28T19:00:05.112Z,99242.34
2022-10-28T19:05:48.029Z,99239.44
2022-10-28T19:08:35.937Z,99239.25
2022-10-28T19:11:43.412Z,99246.94
2022-10-28T19:14:31.499Z,99236.63
2022-10-28T19:17:11.561Z,99237.25
2022-10-28T19:19:39.327Z,99238.69
2022-10-28T19:22:15.803Z,99236.28
2022-10-28T19:24:49.647Z,99239.94
2022-10-28T19:27:19.955Z,99232.38
2022-10-28T19:30:27.996Z,99236.53
2022-10-28T19:33:59.875Z,99227.97
2022-10-28T19:37:14.355Z,99224.06
2022-10-28T19:39:56.400Z,99230.00
2022-10-28T19:42:40.352Z,99229.00
2022-10-28T19:48:16.263Z,99229.75
2022-10-28T19:50:52.381Z,99229.91
2022-10-28T19:53:18.732Z,99235.97
2022-10-28T19:55:45.070Z,99235.47
2022-10-28T19:58:11.560Z,99240.47
2022-10-28T20:00:37.994Z,99245.75
2022-10-28T20:03:04.379Z,99239.47
2022-10-28T20:05:30.799Z,99238.16
2022-10-28T20:07:57.505Z,99247.78
2022-10-28T20:10:23.934Z,99243.97
2022-10-28T20:12:50.338Z,99249.53
2022-10-28T20:15:16.702Z,99240.34
2022-10-28T20:17:43.111Z,99245.91
2022-10-28T20:20:10.210Z,99257.00
2022-10-28T20:22:41.330Z,99257.59
2022-10-28T20:25:09.131Z,99258.41
2022-10-28T20:27:35.512Z,99266.91
2022-10-28T20:30:01.859Z,99268.03
2022-10-28T20:32:28.397Z,99263.69
2022-10-28T20:34:54.851Z,99273.81
2022-10-28T20:37:21.214Z,99270.88
2022-10-28T20:39:48.036Z,99277.47
2022-10-28T20:42:14.500Z,99276.94
2022-10-28T20:44:40.882Z,99280.78
2022-10-28T20:47:07.205Z,99281.88
2022-10-28T20:49:33.600Z,99281.41
2022-10-28T20:52:00.779Z,99283.16
2022-10-28T20:54:27.148Z,99293.22
2022-10-28T20:56:53.475Z,99278.91
2022-10-28T20:59:19.825Z,99289.31
2022-10-28T21:01:46.423Z,99281.09
2022-10-28T21:04:12.992Z,99284.16
2022-10-28T21:06:39.750Z,99284.47
2022-10-28T21:09:06.933Z,99282.66
2022-10-28T21:11:33.660Z,99285.19
2022-10-28T21:14:01.585Z,99287.72
2022-10-28T21:16:31.713Z,99284.81
2022-10-28T21:19:02.696Z,99293.00
2022-10-28T21:21:30.172Z,99288.94
2022-10-28T21:23:56.891Z,99282.66
2022-10-28T21:26:23.393Z,99290.34
2022-10-28T21:28:51.840Z,99293.72
2022-10-28T21:31:20.032Z,99298.06
2022-10-28T21:33:47.058Z,99296.44
2022-10-28T21:36:19.267Z,99306.84
2022-10-28T21:38:46.441Z,99305.22
2022-10-28T21:41:18.617Z,99307.25
2022-10-28T21:43:47.852Z,99305.63
2022-10-28T21:46:14.843Z,99300.16
2022-10-28T21:48:41.361Z,99308.69
2022-10-28T21:51:13.602Z,99313.34
2022-10-28T21:53:42.620Z,99304.81
2022-10-28T21:56:16.567Z,99306.44
2022-10-28T21:58:43.372Z,99297.13
2022-10-28T22:01:13.449Z,99302.00
2022-10-28T22:03:40.699Z,99298.16
2022-10-28T22:06:07.501Z,99307.38
2022-10-28T22:08:34.661Z,99302.59
2022-10-28T22:11:11.990Z,99299.25
2022-10-28T22:13:38.514Z,99297.03
2022-10-28T22:16:07.989Z,99301.59
2022-10-28T22:18:36.121Z,99305.31
2022-10-28T22:21:08.804Z,99309.88
2022-10-28T22:23:35.449Z,99304.31
2022-10-28T22:26:06.079Z,99301.16
2022-10-28T22:28:32.748Z,99309.84
2022-10-28T22:31:00.494Z,99301.97
2022-10-28T22:33:27.166Z,99306.63
2022-10-28T22:36:07.208Z,99314.28
2022-10-28T22:38:33.992Z,99315.94
2022-10-28T22:41:05.935Z,99322.88
2022-10-28T22:43:32.766Z,99321.41
2022-10-28T22:45:59.894Z,99322.28
2022-10-28T22:48:26.880Z,99326.47
2022-10-28T22:50:53.837Z,99333.44
2022-10-28T22:53:20.322Z,99341.72
2022-10-28T22:55:47.479Z,99336.88
2022-10-28T22:58:15.243Z,99332.94
2022-10-28T23:00:41.627Z,99337.19
2022-10-28T23:03:08.186Z,99334.56
2022-10-28T23:05:34.676Z,99330.31
2022-10-28T23:08:01.087Z,99329.91
2022-10-28T23:10:28.071Z,99326.78
2022-10-28T23:12:58.684Z,99324.97
2022-10-28T23:15:25.673Z,99330.84
2022-10-28T23:17:52.692Z,99329.31
2022-10-28T23:20:21.086Z,99333.75
2022-10-28T23:22:47.696Z,99331.72
2022-10-28T23:25:14.831Z,99338.59
2022-10-28T23:27:44.645Z,99336.16
2022-10-28T23:30:13.135Z,99335.97
2022-10-28T23:32:40.258Z,99338.78
2022-10-28T23:35:07.231Z,99330.66
2022-10-28T23:37:33.677Z,99334.50
2022-10-28T23:40:00.103Z,99337.53
2022-10-28T23:42:26.522Z,99338.16
2022-10-28T23:44:52.908Z,99343.38
2022-10-28T23:47:19.379Z,99344.00
2022-10-28T23:49:45.833Z,99343.47
2022-10-28T23:52:12.320Z,99340.25
2022-10-28T23:54:38.805Z,99335.66
2022-10-28T23:57:05.278Z,99336.03
2022-10-28T23:59:31.735Z,99337.13
